sensor_id;sensor_type;location;lat;lon;timestamp;pressure;altitude;pressure_sealevel;temperature;humidity
22580;BME280;11456;47.030;15.396;2023-03-19T00:01:53;97500.72;;;3.28;72.62
22580;BME280;11456;47.030;15.396;2023-03-19T00:04:20;97497.75;;;3.32;72.64
22580;BME280;11456;47.030;15.396;2023-03-19T00:06:47;97495.19;;;3.31;72.30
22580;BME280;11456;47.030;15.396;2023-03-19T00:09:13;97488.19;;;3.17;72.88
22580;BME280;11456;47.030;15.396;2023-03-19T00:11:40;97485.25;;;2.96;73.75
22580;BME280;11456;47.030;15.396;2023-03-19T00:14:07;97499.09;;;3.01;74.12
22580;BME280;11456;47.030;15.396;2023-03-19T00:16:34;97492.50;;;3.07;73.96
22580;BME280;11456;47.030;15.396;2023-03-19T00:19:02;97493.59;;;2.92;74.56
22580;BME280;11456;47.030;15.396;2023-03-19T00:21:29;97495.06;;;2.83;75.31
22580;BME280;11456;47.030;15.396;2023-03-19T00:23:56;97496.22;;;3.04;74.38
22580;BME280;11456;47.030;15.396;2023-03-19T00:26:29;97491.59;;;3.19;73.60
22580;BME280;11456;47.030;15.396;2023-03-19T00:28:56;97499.09;;;3.01;73.89
22580;BME280;11456;47.030;15.396;2023-03-19T00:31:23;97496.13;;;2.93;74.36
22580;BME280;11456;47.030;15.396;2023-03-19T00:33:49;97503.56;;;2.88;75.37
22580;BME280;11456;47.030;15.396;2023-03-19T00:36:16;97488.50;;;2.76;76.09
22580;BME280;11456;47.030;15.396;2023-03-19T00:38:44;97487.41;;;2.91;76.00
22580;BME280;11456;47.030;15.396;2023-03-19T00:41:11;97488.28;;;2.79;74.86
22580;BME280;11456;47.030;15.396;2023-03-19T00:43:38;97487.75;;;2.74;75.08
22580;BME280;11456;47.030;15.396;2023-03-19T00:46:05;97484.66;;;2.80;75.61
22580;BME280;11456;47.030;15.396;2023-03-19T00:48:32;97478.28;;;2.70;75.57
22580;BME280;11456;47.030;15.396;2023-03-19T00:51:01;97483.91;;;2.78;75.44
22580;BME280;11456;47.030;15.396;2023-03-19T00:53:28;97478.69;;;2.89;74.95
22580;BME280;11456;47.030;15.396;2023-03-19T00:55:55;97472.41;;;2.90;74.75
22580;BME280;11456;47.030;15.396;2023-03-19T00:58:21;97481.44;;;3.00;74.43
22580;BME280;11456;47.030;15.396;2023-03-19T01:00:52;97478.47;;;2.92;74.15
22580;BME280;11456;47.030;15.396;2023-03-19T01:03:19;97481.50;;;2.75;74.48
22580;BME280;11456;47.030;15.396;2023-03-19T01:05:46;97480.81;;;2.84;74.43
22580;BME280;11456;47.030;15.396;2023-03-19T01:08:14;97485.53;;;2.80;74.65
22580;BME280;11456;47.030;15.396;2023-03-19T01:10:41;97483.38;;;2.86;74.52
22580;BME280;11456;47.030;15.396;2023-03-19T01:13:08;97476.59;;;2.81;74.63
22580;BME280;11456;47.030;15.396;2023-03-19T01:15:35;97468.50;;;2.70;75.10
22580;BME280;11456;47.030;15.396;2023-03-19T01:18:02;97469.28;;;2.60;75.45
22580;BME280;11456;47.030;15.396;2023-03-19T01:20:28;97472.13;;;2.57;75.75
22580;BME280;11456;47.030;15.396;2023-03-19T01:22:55;97472.13;;;2.57;76.45
22580;BME280;11456;47.030;15.396;2023-03-19T01:25:21;97477.44;;;2.69;75.64
22580;BME280;11456;47.030;15.396;2023-03-19T01:27:59;97469.34;;;2.71;75.57
22580;BME280;11456;47.030;15.396;2023-03-19T01:30:26;97464.47;;;2.65;75.46
22580;BME280;11456;47.030;15.396;2023-03-19T01:33:15;97465.16;;;2.30;77.34
22580;BME280;11456;47.030;15.396;2023-03-19T01:35:59;97453.44;;;2.46;77.31
22580;BME280;11456;47.030;15.396;2023-03-19T01:38:36;97467.00;;;2.79;76.57
22580;BME280;11456;47.030;15.396;2023-03-19T01:41:11;97474.25;;;2.52;76.78
22580;BME280;11456;47.030;15.396;2023-03-19T01:43:38;97458.31;;;2.52;77.56
22580;BME280;11456;47.030;15.396;2023-03-19T01:49:12;97466.09;;;2.55;77.00
22580;BME280;11456;47.030;15.396;2023-03-19T01:51:44;97458.13;;;2.55;76.48
22580;BME280;11456;47.030;15.396;2023-03-19T01:54:28;97456.94;;;2.33;78.24
22580;BME280;11456;47.030;15.396;2023-03-19T01:57:08;97459.41;;;2.24;79.17
22580;BME280;11456;47.030;15.396;2023-03-19T02:00:12;97464.50;;;2.39;78.59
22580;BME280;11456;47.030;15.396;2023-03-19T02:02:42;97457.25;;;2.54;78.26
22580;BME280;11456;47.030;15.396;2023-03-19T02:05:37;97453.84;;;2.65;77.51
22580;BME280;11456;47.030;15.396;2023-03-19T02:08:09;97454.34;;;2.70;76.81
22580;BME280;11456;47.030;15.396;2023-03-19T02:10:37;97451.09;;;2.54;77.76
22580;BME280;11456;47.030;15.396;2023-03-19T02:13:04;97463.19;;;2.58;77.18
22580;BME280;11456;47.030;15.396;2023-03-19T02:15:31;97470.88;;;2.50;77.07
22580;BME280;11456;47.030;15.396;2023-03-19T02:17:58;97468.53;;;2.32;78.05
22580;BME280;11456;47.030;15.396;2023-03-19T02:22:56;97459.78;;;2.81;76.35
22580;BME280;11456;47.030;15.396;2023-03-19T02:25:27;97450.84;;;2.69;76.84
22580;BME280;11456;47.030;15.396;2023-03-19T02:27:56;97453.31;;;2.60;77.27
22580;BME280;11456;47.030;15.396;2023-03-19T02:30:24;97467.25;;;2.51;77.70
22580;BME280;11456;47.030;15.396;2023-03-19T02:32:53;97465.56;;;2.50;77.67
22580;BME280;11456;47.030;15.396;2023-03-19T02:35:20;97472.34;;;2.54;77.69
22580;BME280;11456;47.030;15.396;2023-03-19T02:37:46;97459.59;;;2.59;76.95
22580;BME280;11456;47.030;15.396;2023-03-19T02:40:18;97459.41;;;2.49;77.65
22580;BME280;11456;47.030;15.396;2023-03-19T02:42:46;97453.00;;;2.52;77.48
22580;BME280;11456;47.030;15.396;2023-03-19T02:45:13;97452.56;;;2.58;78.12
22580;BME280;11456;47.030;15.396;2023-03-19T02:47:40;97465.44;;;2.51;78.14
22580;BME280;11456;47.030;15.396;2023-03-19T02:50:07;97458.72;;;1.95;80.85
22580;BME280;11456;47.030;15.396;2023-03-19T02:52:34;97461.31;;;2.34;80.02
22580;BME280;11456;47.030;15.396;2023-03-19T02:55:00;97464.91;;;2.33;79.66
22580;BME280;11456;47.030;15.396;2023-03-19T02:57:27;97471.69;;;2.12;79.74
22580;BME280;11456;47.030;15.396;2023-03-19T02:59:54;97465.53;;;2.24;79.76
22580;BME280;11456;47.030;15.396;2023-03-19T03:02:21;97465.16;;;2.30;78.93
22580;BME280;11456;47.030;15.396;2023-03-19T03:04:47;97470.47;;;2.30;78.66
22580;BME280;11456;47.030;15.396;2023-03-19T03:07:14;97458.22;;;2.15;79.14
22580;BME280;11456;47.030;15.396;2023-03-19T03:09:40;97457.28;;;2.16;79.30
22580;BME280;11456;47.030;15.396;2023-03-19T03:12:08;97455.91;;;2.23;79.16
22580;BME280;11456;47.030;15.396;2023-03-19T03:14:35;97455.34;;;2.18;79.55
22580;BME280;11456;47.030;15.396;2023-03-19T03:17:01;97460.50;;;1.82;80.68
22580;BME280;11456;47.030;15.396;2023-03-19T03:19:28;97462.78;;;2.13;80.42
22580;BME280;11456;47.030;15.396;2023-03-19T03:21:56;97460.63;;;2.06;79.75
22580;BME280;11456;47.030;15.396;2023-03-19T03:24:22;97461.91;;;2.00;80.29
22580;BME280;11456;47.030;15.396;2023-03-19T03:26:49;97463.19;;;2.07;80.32
22580;BME280;11456;47.030;15.396;2023-03-19T03:29:15;97462.34;;;1.94;81.73
22580;BME280;11456;47.030;15.396;2023-03-19T03:31:42;97458.56;;;2.23;80.67
22580;BME280;11456;47.030;15.396;2023-03-19T03:34:09;97464.91;;;2.21;79.85
22580;BME280;11456;47.030;15.396;2023-03-19T03:36:35;97454.81;;;2.13;79.88
22580;BME280;11456;47.030;15.396;2023-03-19T03:39:02;97465.66;;;2.10;79.27
22580;BME280;11456;47.030;15.396;2023-03-19T03:41:29;97466.56;;;1.84;80.35
22580;BME280;11456;47.030;15.396;2023-03-19T03:43:56;97457.44;;;1.88;80.57
22580;BME280;11456;47.030;15.396;2023-03-19T03:46:22;97461.28;;;1.84;80.97
22580;BME280;11456;47.030;15.396;2023-03-19T03:48:50;97455.22;;;2.07;80.86
22580;BME280;11456;47.030;15.396;2023-03-19T03:51:17;97453.25;;;2.23;79.60
22580;BME280;11456;47.030;15.396;2023-03-19T03:53:44;97454.09;;;2.11;79.45
22580;BME280;11456;47.030;15.396;2023-03-19T03:56:11;97450.03;;;2.06;79.56
22580;BME280;11456;47.030;15.396;2023-03-19T03:58:38;97451.06;;;1.78;79.98
22580;BME280;11456;47.030;15.396;2023-03-19T04:01:04;97450.78;;;1.55;82.03
22580;BME280;11456;47.030;15.396;2023-03-19T04:03:32;97454.66;;;1.77;81.74
22580;BME280;11456;47.030;15.396;2023-03-19T04:05:59;97457.53;;;1.86;81.50
22580;BME280;11456;47.030;15.396;2023-03-19T04:08:26;97463.56;;;1.76;80.71
22580;BME280;11456;47.030;15.396;2023-03-19T04:10:53;97454.19;;;1.57;81.53
22580;BME280;11456;47.030;15.396;2023-03-19T04:13:19;97462.50;;;1.66;81.47
22580;BME280;11456;47.030;15.396;2023-03-19T04:15:46;97459.50;;;1.57;81.75
22580;BME280;11456;47.030;15.396;2023-03-19T04:18:13;97462.63;;;1.77;81.07
22580;BME280;11456;47.030;15.396;2023-03-19T04:20:40;97452.78;;;1.91;81.25
22580;BME280;11456;47.030;15.396;2023-03-19T04:23:07;97447.59;;;1.50;82.00
22580;BME280;11456;47.030;15.396;2023-03-19T04:25:34;97445.69;;;1.52;82.52
22580;BME280;11456;47.030;15.396;2023-03-19T04:28:00;97449.47;;;1.48;83.12
22580;BME280;11456;47.030;15.396;2023-03-19T04:30:27;97444.00;;;1.51;83.03
22580;BME280;11456;47.030;15.396;2023-03-19T04:32:54;97443.78;;;1.67;82.64
22580;BME280;11456;47.030;15.396;2023-03-19T04:35:22;97447.03;;;1.85;82.47
22580;BME280;11456;47.030;15.396;2023-03-19T04:37:48;97452.53;;;1.82;81.51
22580;BME280;11456;47.030;15.396;2023-03-19T04:40:17;97451.25;;;1.75;81.96
22580;BME280;11456;47.030;15.396;2023-03-19T04:42:45;97447.22;;;1.69;81.11
22580;BME280;11456;47.030;15.396;2023-03-19T04:45:24;97446.56;;;1.26;82.97
22580;BME280;11456;47.030;15.396;2023-03-19T04:47:51;97436.91;;;1.25;83.66
22580;BME280;11456;47.030;15.396;2023-03-19T04:50:18;97440.97;;;1.43;83.02
22580;BME280;11456;47.030;15.396;2023-03-19T04:52:45;97439.31;;;1.55;82.82
22580;BME280;11456;47.030;15.396;2023-03-19T04:55:11;97452.06;;;1.23;83.08
22580;BME280;11456;47.030;15.396;2023-03-19T04:58:01;97453.59;;;1.13;83.91
22580;BME280;11456;47.030;15.396;2023-03-19T05:00:31;97446.00;;;1.21;84.81
22580;BME280;11456;47.030;15.396;2023-03-19T05:02:58;97439.53;;;1.52;83.59
22580;BME280;11456;47.030;15.396;2023-03-19T05:05:27;97444.47;;;1.71;82.84
22580;BME280;11456;47.030;15.396;2023-03-19T05:07:53;97455.69;;;1.61;82.13
22580;BME280;11456;47.030;15.396;2023-03-19T05:10:20;97454.19;;;1.57;82.46
22580;BME280;11456;47.030;15.396;2023-03-19T05:12:47;97450.78;;;1.55;82.15
22580;BME280;11456;47.030;15.396;2023-03-19T05:15:13;97459.78;;;1.40;82.44
22580;BME280;11456;47.030;15.396;2023-03-19T05:17:50;97467.38;;;1.59;82.77
22580;BME280;11456;47.030;15.396;2023-03-19T05:20:20;97453.16;;;1.60;82.29
22580;BME280;11456;47.030;15.396;2023-03-19T05:22:53;97456.16;;;1.81;82.02
22580;BME280;11456;47.030;15.396;2023-03-19T05:25:28;97453.97;;;1.60;82.18
22580;BME280;11456;47.030;15.396;2023-03-19T05:27:55;97455.91;;;1.58;82.35
22580;BME280;11456;47.030;15.396;2023-03-19T05:30:23;97468.06;;;1.48;82.87
22580;BME280;11456;47.030;15.396;2023-03-19T05:33:06;97465.69;;;1.71;82.41
22580;BME280;11456;47.030;15.396;2023-03-19T05:35:36;97459.25;;;2.00;81.56
22580;BME280;11456;47.030;15.396;2023-03-19T05:38:08;97458.97;;;2.17;80.73
22580;BME280;11456;47.030;15.396;2023-03-19T05:40:39;97465.31;;;2.02;81.25
22580;BME280;11456;47.030;15.396;2023-03-19T05:43:20;97464.91;;;2.33;81.66
22580;BME280;11456;47.030;15.396;2023-03-19T05:45:50;97467.81;;;2.43;80.83
22580;BME280;11456;47.030;15.396;2023-03-19T05:48:26;97469.81;;;2.52;80.48
22580;BME280;11456;47.030;15.396;2023-03-19T05:50:53;97477.66;;;2.79;80.42
22580;BME280;11456;47.030;15.396;2023-03-19T05:53:21;97484.38;;;3.08;79.21
22580;BME280;11456;47.030;15.396;2023-03-19T05:56:08;97481.34;;;3.38;78.99
22580;BME280;11456;47.030;15.396;2023-03-19T05:58:46;97491.22;;;3.60;78.81
22580;BME280;11456;47.030;15.396;2023-03-19T06:01:17;97472.22;;;3.77;77.84
22580;BME280;11456;47.030;15.396;2023-03-19T06:03:43;97473.41;;;4.19;76.81
22580;BME280;11456;47.030;15.396;2023-03-19T06:06:12;97477.50;;;4.12;76.15
22580;BME280;11456;47.030;15.396;2023-03-19T06:08:42;97483.56;;;4.60;76.31
22580;BME280;11456;47.030;15.396;2023-03-19T06:11:19;97485.63;;;4.79;73.75
22580;BME280;11456;47.030;15.396;2023-03-19T06:13:53;97484.56;;;4.93;73.81
22580;BME280;11456;47.030;15.396;2023-03-19T06:16:20;97479.91;;;5.17;72.20
22580;BME280;11456;47.030;15.396;2023-03-19T06:18:50;97484.16;;;5.31;72.35
22580;BME280;11456;47.030;15.396;2023-03-19T06:21:17;97484.19;;;5.51;70.55
22580;BME280;11456;47.030;15.396;2023-03-19T06:23:44;97487.91;;;5.28;70.55
22580;BME280;11456;47.030;15.396;2023-03-19T06:26:14;97486.09;;;5.72;70.07
22580;BME280;11456;47.030;15.396;2023-03-19T06:28:47;97477.34;;;5.81;69.26
22580;BME280;11456;47.030;15.396;2023-03-19T06:31:15;97473.41;;;5.85;67.92
22580;BME280;11456;47.030;15.396;2023-03-19T06:34:00;97484.91;;;6.08;67.76
22580;BME280;11456;47.030;15.396;2023-03-19T06:36:37;97482.00;;;6.52;66.62
22580;BME280;11456;47.030;15.396;2023-03-19T06:39:06;97485.81;;;7.10;64.68
22580;BME280;11456;47.030;15.396;2023-03-19T06:41:34;97483.63;;;7.35;62.12
22580;BME280;11456;47.030;15.396;2023-03-19T06:44:10;97484.31;;;7.27;63.86
22580;BME280;11456;47.030;15.396;2023-03-19T06:46:37;97479.78;;;7.96;60.21
22580;BME280;11456;47.030;15.396;2023-03-19T06:49:03;97476.53;;;8.02;60.80
22580;BME280;11456;47.030;15.396;2023-03-19T06:51:30;97485.16;;;8.16;60.46
22580;BME280;11456;47.030;15.396;2023-03-19T06:53:56;97489.78;;;8.14;60.42
22580;BME280;11456;47.030;15.396;2023-03-19T06:56:23;97491.91;;;8.00;57.95
22580;BME280;11456;47.030;15.396;2023-03-19T06:58:50;97488.97;;;8.32;58.39
22580;BME280;11456;47.030;15.396;2023-03-19T07:01:16;97473.16;;;9.59;55.33
22580;BME280;11456;47.030;15.396;2023-03-19T07:03:43;97480.09;;;8.51;55.55
22580;BME280;11456;47.030;15.396;2023-03-19T07:06:10;97484.66;;;8.78;56.10
22580;BME280;11456;47.030;15.396;2023-03-19T07:08:36;97482.38;;;9.75;55.91
22580;BME280;11456;47.030;15.396;2023-03-19T07:11:03;97478.91;;;9.47;53.79
22580;BME280;11456;47.030;15.396;2023-03-19T07:13:30;97476.25;;;10.00;53.86
22580;BME280;11456;47.030;15.396;2023-03-19T07:15:58;97467.84;;;10.30;52.76
22580;BME280;11456;47.030;15.396;2023-03-19T07:18:24;97473.25;;;10.56;51.41
22580;BME280;11456;47.030;15.396;2023-03-19T07:20:51;97483.44;;;10.88;53.03
22580;BME280;11456;47.030;15.396;2023-03-19T07:23:18;97480.84;;;11.04;51.53
22580;BME280;11456;47.030;15.396;2023-03-19T07:25:44;97475.91;;;12.10;48.13
22580;BME280;11456;47.030;15.396;2023-03-19T07:28:12;97477.88;;;11.99;47.78
22580;BME280;11456;47.030;15.396;2023-03-19T07:30:39;97477.78;;;12.66;45.61
22580;BME280;11456;47.030;15.396;2023-03-19T07:33:06;97477.59;;;12.27;47.61
22580;BME280;11456;47.030;15.396;2023-03-19T07:35:33;97477.59;;;12.27;46.37
22580;BME280;11456;47.030;15.396;2023-03-19T07:38:00;97487.84;;;12.07;45.38
22580;BME280;11456;47.030;15.396;2023-03-19T07:40:27;97480.91;;;12.04;46.23
22580;BME280;11456;47.030;15.396;2023-03-19T07:42:54;97471.81;;;12.95;45.06
22580;BME280;11456;47.030;15.396;2023-03-19T07:45:21;97476.91;;;12.98;44.32
22580;BME280;11456;47.030;15.396;2023-03-19T07:47:50;97489.91;;;12.21;45.10
22580;BME280;11456;47.030;15.396;2023-03-19T07:50:17;97482.63;;;12.95;44.29
22580;BME280;11456;47.030;15.396;2023-03-19T07:52:45;97475.22;;;12.80;44.81
22580;BME280;11456;47.030;15.396;2023-03-19T07:55:12;97475.91;;;12.58;46.55
22580;BME280;11456;47.030;15.396;2023-03-19T07:57:39;97482.31;;;12.49;44.34
22580;BME280;11456;47.030;15.396;2023-03-19T08:00:06;97484.16;;;12.24;44.77
22580;BME280;11456;47.030;15.396;2023-03-19T08:02:38;97474.84;;;13.00;43.96
22580;BME280;11456;47.030;15.396;2023-03-19T08:05:04;97458.56;;;13.32;43.98
22580;BME280;11456;47.030;15.396;2023-03-19T08:07:31;97468.44;;;11.95;45.54
22580;BME280;11456;47.030;15.396;2023-03-19T08:09:58;97471.69;;;12.39;44.92
22580;BME280;11456;47.030;15.396;2023-03-19T08:12:24;97468.47;;;12.93;43.80
22580;BME280;11456;47.030;15.396;2023-03-19T08:14:51;97469.47;;;12.83;46.05
22580;BME280;11456;47.030;15.396;2023-03-19T08:17:18;97460.66;;;13.14;45.14
22580;BME280;11456;47.030;15.396;2023-03-19T08:19:44;97456.75;;;13.08;43.86
22580;BME280;11456;47.030;15.396;2023-03-19T08:22:12;97460.69;;;12.81;45.73
22580;BME280;11456;47.030;15.396;2023-03-19T08:24:38;97450.72;;;13.53;43.95
22580;BME280;11456;47.030;15.396;2023-03-19T08:27:05;97443.91;;;13.65;44.29
22580;BME280;11456;47.030;15.396;2023-03-19T08:29:32;97437.84;;;13.94;43.90
22580;BME280;11456;47.030;15.396;2023-03-19T08:31:58;97454.22;;;14.24;42.06
22580;BME280;11456;47.030;15.396;2023-03-19T08:34:26;97456.28;;;13.91;42.60
22580;BME280;11456;47.030;15.396;2023-03-19T08:36:52;97456.50;;;14.12;42.70
22580;BME280;11456;47.030;15.396;2023-03-19T08:39:19;97467.47;;;13.57;43.64
22580;BME280;11456;47.030;15.396;2023-03-19T08:41:45;97468.72;;;14.08;42.45
22580;BME280;11456;47.030;15.396;2023-03-19T08:44:12;97469.09;;;13.97;41.89
22580;BME280;11456;47.030;15.396;2023-03-19T08:46:39;97473.28;;;14.38;42.37
22580;BME280;11456;47.030;15.396;2023-03-19T08:49:08;97465.44;;;15.18;41.40
22580;BME280;11456;47.030;15.396;2023-03-19T08:51:34;97475.22;;;15.05;40.75
22580;BME280;11456;47.030;15.396;2023-03-19T08:54:01;97479.66;;;15.20;41.76
22580;BME280;11456;47.030;15.396;2023-03-19T08:56:28;97476.47;;;15.02;41.16
22580;BME280;11456;47.030;15.396;2023-03-19T08:58:55;97479.47;;;14.16;42.15
22580;BME280;11456;47.030;15.396;2023-03-19T09:01:21;97465.81;;;15.15;40.76
22580;BME280;11456;47.030;15.396;2023-03-19T09:03:49;97464.22;;;15.50;40.14
22580;BME280;11456;47.030;15.396;2023-03-19T09:06:15;97456.41;;;14.51;40.90
22580;BME280;11456;47.030;15.396;2023-03-19T09:08:42;97463.03;;;14.71;41.02
22580;BME280;11456;47.030;15.396;2023-03-19T09:11:09;97460.91;;;14.96;40.70
22580;BME280;11456;47.030;15.396;2023-03-19T09:13:36;97470.50;;;15.21;39.93
22580;BME280;11456;47.030;15.396;2023-03-19T09:16:03;97479.78;;;14.90;39.76
22580;BME280;11456;47.030;15.396;2023-03-19T09:18:30;97469.06;;;14.96;40.53
22580;BME280;11456;47.030;15.396;2023-03-19T09:20:56;97459.19;;;15.62;38.82
22580;BME280;11456;47.030;15.396;2023-03-19T09:23:23;97457.44;;;16.05;38.92
22580;BME280;11456;47.030;15.396;2023-03-19T09:25:49;97463.22;;;15.81;38.79
22580;BME280;11456;47.030;15.396;2023-03-19T09:28:16;97446.56;;;16.05;38.34
22580;BME280;11456;47.030;15.396;2023-03-19T09:30:46;97458.13;;;15.92;38.56
22580;BME280;11456;47.030;15.396;2023-03-19T09:33:13;97463.09;;;16.46;37.95
22580;BME280;11456;47.030;15.396;2023-03-19T09:35:40;97457.50;;;16.97;36.87
22580;BME280;11456;47.030;15.396;2023-03-19T09:38:07;97450.31;;;16.82;36.65
22580;BME280;11456;47.030;15.396;2023-03-19T09:40:35;97446.38;;;17.47;35.73
22580;BME280;11456;47.030;15.396;2023-03-19T09:43:19;97443.84;;;16.26;37.52
22580;BME280;11456;47.030;15.396;2023-03-19T09:45:50;97433.47;;;17.28;36.25
22580;BME280;11456;47.030;15.396;2023-03-19T09:48:18;97437.31;;;17.40;35.51
22580;BME280;11456;47.030;15.396;2023-03-19T09:50:46;97453.13;;;16.32;37.26
22580;BME280;11456;47.030;15.396;2023-03-19T09:55:47;97449.00;;;16.36;36.71
22580;BME280;11456;47.030;15.396;2023-03-19T09:58:19;97442.44;;;16.09;37.29
22580;BME280;11456;47.030;15.396;2023-03-19T10:00:48;97443.63;;;16.42;36.73
22580;BME280;11456;47.030;15.396;2023-03-19T10:16:27;97426.44;;;17.40;34.66
22580;BME280;11456;47.030;15.396;2023-03-19T10:18:58;97426.09;;;17.22;34.38
22580;BME280;11456;47.030;15.396;2023-03-19T10:21:36;97425.75;;;17.04;35.16
22580;BME280;11456;47.030;15.396;2023-03-19T10:24:20;97425.59;;;16.84;35.13
22580;BME280;11456;47.030;15.396;2023-03-19T10:26:47;97411.63;;;16.87;34.97
22580;BME280;11456;47.030;15.396;2023-03-19T10:29:18;97417.53;;;17.59;33.71
22580;BME280;11456;47.030;15.396;2023-03-19T10:34:36;97419.50;;;17.72;34.30
22580;BME280;11456;47.030;15.396;2023-03-19T10:37:13;97411.28;;;18.39;32.26
22580;BME280;11456;47.030;15.396;2023-03-19T10:39:43;97416.72;;;18.26;32.42
22580;BME280;11456;47.030;15.396;2023-03-19T10:47:54;97413.34;;;17.29;31.45
22580;BME280;11456;47.030;15.396;2023-03-19T10:50:29;97419.59;;;16.89;31.95
22580;BME280;11456;47.030;15.396;2023-03-19T10:55:43;97413.66;;;16.36;32.75
22580;BME280;11456;47.030;15.396;2023-03-19T10:58:16;97410.03;;;16.71;32.97
22580;BME280;11456;47.030;15.396;2023-03-19T11:01:06;97413.22;;;16.11;34.18
22580;BME280;11456;47.030;15.396;2023-03-19T11:03:31;97399.91;;;15.51;34.17
22580;BME280;11456;47.030;15.396;2023-03-19T11:08:35;97394.59;;;15.57;35.83
22580;BME280;11456;47.030;15.396;2023-03-19T11:11:02;97405.34;;;15.51;35.64
22580;BME280;11456;47.030;15.396;2023-03-19T11:13:29;97397.59;;;15.98;35.60
22580;BME280;11456;47.030;15.396;2023-03-19T11:15:59;97401.03;;;15.71;35.73
22580;BME280;11456;47.030;15.396;2023-03-19T11:18:27;97396.97;;;15.60;36.09
22580;BME280;11456;47.030;15.396;2023-03-19T11:20:57;97392.25;;;15.69;36.41
22580;BME280;11456;47.030;15.396;2023-03-19T11:23:28;97394.91;;;16.62;34.95
22580;BME280;11456;47.030;15.396;2023-03-19T11:25:59;97388.13;;;15.73;36.13
22580;BME280;11456;47.030;15.396;2023-03-19T11:28:27;97387.88;;;15.89;36.07
22580;BME280;11456;47.030;15.396;2023-03-19T11:33:37;97394.88;;;16.20;35.31
22580;BME280;11456;47.030;15.396;2023-03-19T11:36:09;97397.59;;;15.98;35.99
22580;BME280;11456;47.030;15.396;2023-03-19T11:43:58;97389.19;;;17.47;34.04
22580;BME280;11456;47.030;15.396;2023-03-19T11:46:33;97383.13;;;18.06;32.17
22580;BME280;11456;47.030;15.396;2023-03-19T11:51:50;97379.88;;;18.63;31.33
22580;BME280;11456;47.030;15.396;2023-03-19T11:57:00;97363.97;;;20.09;30.49
22580;BME280;11456;47.030;15.396;2023-03-19T12:09:39;97347.06;;;20.50;28.31
22580;BME280;11456;47.030;15.396;2023-03-19T12:17:39;97354.50;;;21.17;28.15
22580;BME280;11456;47.030;15.396;2023-03-19T12:20:16;97353.13;;;20.58;29.41
22580;BME280;11456;47.030;15.396;2023-03-19T12:22:52;97347.34;;;21.16;28.12
22580;BME280;11456;47.030;15.396;2023-03-19T12:25:30;97354.44;;;20.49;30.23
22580;BME280;11456;47.030;15.396;2023-03-19T12:30:50;97343.44;;;19.93;30.28
22580;BME280;11456;47.030;15.396;2023-03-19T12:33:27;97350.25;;;20.47;30.46
22580;BME280;11456;47.030;15.396;2023-03-19T12:35:59;97351.53;;;20.44;30.35
22580;BME280;11456;47.030;15.396;2023-03-19T12:41:02;97356.22;;;19.99;30.16
22580;BME280;11456;47.030;15.396;2023-03-19T12:43:34;97343.16;;;20.89;28.54
22580;BME280;11456;47.030;15.396;2023-03-19T12:47:04;97349.53;;;20.83;28.71
22580;BME280;11456;47.030;15.396;2023-03-19T12:49:14;97352.22;;;20.64;28.78
22580;BME280;11456;47.030;15.396;2023-03-19T12:51:45;97356.31;;;20.80;29.16
22580;BME280;11456;47.030;15.396;2023-03-19T13:02:00;97347.31;;;19.72;29.28
22580;BME280;11456;47.030;15.396;2023-03-19T13:04:29;97350.66;;;19.74;29.89
22580;BME280;11456;47.030;15.396;2023-03-19T13:07:03;97347.25;;;19.85;29.60
22580;BME280;11456;47.030;15.396;2023-03-19T13:09:50;97345.44;;;18.95;30.52
22580;BME280;11456;47.030;15.396;2023-03-19T13:14:56;97340.84;;;18.30;32.58
22580;BME280;11456;47.030;15.396;2023-03-19T13:17:48;97341.28;;;18.73;30.87
22580;BME280;11456;47.030;15.396;2023-03-19T13:22:41;97349.63;;;18.45;32.46
22580;BME280;11456;47.030;15.396;2023-03-19T13:25:13;97340.03;;;18.69;31.89
22580;BME280;11456;47.030;15.396;2023-03-19T13:27:41;97337.66;;;18.20;32.20
22580;BME280;11456;47.030;15.396;2023-03-19T13:35:08;97324.47;;;18.10;32.38
22580;BME280;11456;47.030;15.396;2023-03-19T13:37:42;97325.72;;;18.27;33.14
22580;BME280;11456;47.030;15.396;2023-03-19T13:40:55;97326.34;;;18.23;32.92
22580;BME280;11456;47.030;15.396;2023-03-19T13:42:56;97328.69;;;18.59;32.39
22580;BME280;11456;47.030;15.396;2023-03-19T13:47:56;97323.25;;;17.58;33.78
22580;BME280;11456;47.030;15.396;2023-03-19T13:50:27;97312.25;;;17.86;33.77
22580;BME280;11456;47.030;15.396;2023-03-19T13:53:38;97310.59;;;18.18;34.39
22580;BME280;11456;47.030;15.396;2023-03-19T13:58:19;97313.16;;;18.72;33.17
22580;BME280;11456;47.030;15.396;2023-03-19T14:01:05;97311.25;;;18.86;31.95
22580;BME280;11456;47.030;15.396;2023-03-19T14:03:33;97309.78;;;18.64;33.24
22580;BME280;11456;47.030;15.396;2023-03-19T14:06:02;97303.78;;;19.33;31.42
22580;BME280;11456;47.030;15.396;2023-03-19T14:08:33;97309.06;;;19.14;32.41
22580;BME280;11456;47.030;15.396;2023-03-19T14:11:08;97302.44;;;18.84;32.46
22580;BME280;11456;47.030;15.396;2023-03-19T14:13:36;97297.19;;;18.69;32.56
22580;BME280;11456;47.030;15.396;2023-03-19T14:16:29;97299.91;;;18.69;32.83
22580;BME280;11456;47.030;15.396;2023-03-19T14:18:55;97291.97;;;18.61;32.25
22580;BME280;11456;47.030;15.396;2023-03-19T14:22:07;97301.22;;;18.67;32.77
22580;BME280;11456;47.030;15.396;2023-03-19T14:27:19;97311.25;;;18.53;33.05
22580;BME280;11456;47.030;15.396;2023-03-19T14:29:47;97308.03;;;19.02;32.43
22580;BME280;11456;47.030;15.396;2023-03-19T14:32:15;97302.22;;;18.53;33.04
22580;BME280;11456;47.030;15.396;2023-03-19T14:34:45;97302.25;;;18.59;33.07
22580;BME280;11456;47.030;15.396;2023-03-19T14:37:17;97297.84;;;18.65;32.64
22580;BME280;11456;47.030;15.396;2023-03-19T14:39:44;97302.22;;;18.07;33.77
22580;BME280;11456;47.030;15.396;2023-03-19T14:42:18;97294.59;;;17.62;34.36
22580;BME280;11456;47.030;15.396;2023-03-19T14:49:58;97310.44;;;17.46;35.38